Time;durP1;ratioP1;P1;durP2;ratioP2;P2;SDS_P1;SDS_P2;PMS_P1;PMS_P2;Temp;Humidity;BMP_temperature;BMP_pressure;BME280_temperature;BME280_humidity;BME280_pressure;Samples;Min_cycle;Max_cycle;Signal;HPM_P1;HPM_P2
2021/07/26 00:01:22;;;;;;;;;;;20.60;99.90;;;;;;1909799;73;20125;-73
2021/07/26 00:03:49;;;;;;;;;;;20.70;99.90;;;;;;1930001;73;20435;-73
2021/07/26 00:06:16;;;;;;;;;;;20.70;99.90;;;;;;1924639;73;20118;-73
2021/07/26 00:08:43;;;;;;;;;;;20.80;99.90;;;;;;1921437;73;20532;-74
2021/07/26 00:11:10;;;;;;;;;;;20.90;99.90;;;;;;1926946;73;20223;-73
2021/07/26 00:13:38;;;;;;;;;;;20.90;99.90;;;;;;1918842;73;20247;-73
2021/07/26 00:16:05;;;;;;;;;;;21.00;99.90;;;;;;1927288;73;20208;-73
2021/07/26 00:18:33;;;;;;;;;;;21.10;99.90;;;;;;1933309;73;20173;-73
2021/07/26 00:21:00;;;;;;;;;;;21.00;99.90;;;;;;1911546;75;20301;-73
2021/07/26 00:23:28;;;;;;;;;;;21.00;99.90;;;;;;1915624;73;20160;-74
2021/07/26 00:25:55;;;;;;;;;;;20.90;99.90;;;;;;1919006;75;20165;-74
2021/07/26 00:28:22;;;;;;;;;;;20.80;99.90;;;;;;1930681;73;20280;-73
2021/07/26 00:30:48;;;;;;;;;;;20.70;99.90;;;;;;1925059;73;20224;-73
2021/07/26 00:33:41;;;;;;;;;;;20.70;99.90;;;;;;1936161;73;20166;-73
2021/07/26 00:36:02;;;;;;;;;;;20.60;99.90;;;;;;1951731;73;20133;-75
2021/07/26 00:38:28;;;;;;;;;;;20.60;99.90;;;;;;1914860;73;20210;-73
2021/07/26 00:40:55;;;;;;;;;;;20.50;99.90;;;;;;1936394;73;20155;-74
2021/07/26 00:43:22;;;;;;;;;;;20.40;99.90;;;;;;1929763;73;20199;-73
2021/07/26 00:45:51;;;;;;;;;;;20.40;99.90;;;;;;1929326;73;20245;-73
2021/07/26 00:48:17;;;;;;;;;;;20.40;99.90;;;;;;1945263;73;20404;-74
2021/07/26 00:50:44;;;;;;;;;;;20.40;99.90;;;;;;1918264;73;20216;-73
2021/07/26 00:53:11;;;;;;;;;;;20.40;99.90;;;;;;1919887;73;20181;-74
2021/07/26 00:55:40;;;;;;;;;;;20.30;99.90;;;;;;1943707;73;20181;-73
2021/07/26 00:58:06;;;;;;;;;;;20.30;99.90;;;;;;1917856;73;20502;-74
2021/07/26 01:00:33;;;;;;;;;;;20.20;99.90;;;;;;1922949;73;20492;-74
2021/07/26 01:03:00;;;;;;;;;;;20.20;99.90;;;;;;1931822;73;20165;-74
2021/07/26 01:05:27;;;;;;;;;;;20.20;99.90;;;;;;1913328;74;20190;-74
2021/07/26 01:07:54;;;;;;;;;;;20.20;99.90;;;;;;1922489;73;20159;-74
2021/07/26 01:10:21;;;;;;;;;;;20.10;99.90;;;;;;1927250;73;20178;-75
2021/07/26 01:12:48;;;;;;;;;;;20.00;99.90;;;;;;1933169;73;20224;-75
2021/07/26 01:15:14;;;;;;;;;;;20.00;99.90;;;;;;1918312;73;20126;-75
2021/07/26 01:18:01;;;;;;;;;;;20.10;99.90;;;;;;1940250;73;20553;-75
2021/07/26 01:20:28;;;;;;;;;;;20.10;99.90;;;;;;1935360;73;20163;-76
2021/07/26 01:22:55;;;;;;;;;;;20.00;99.90;;;;;;1935401;73;20151;-76
2021/07/26 01:25:21;;;;;;;;;;;20.00;99.90;;;;;;1921080;73;20255;-75
2021/07/26 01:27:48;;;;;;;;;;;20.10;99.90;;;;;;1913127;73;20255;-74
2021/07/26 01:30:15;;;;;;;;;;;20.10;99.90;;;;;;1937806;73;20265;-74
2021/07/26 01:32:42;;;;;;;;;;;20.10;99.90;;;;;;1927900;73;20190;-74
2021/07/26 01:35:09;;;;;;;;;;;20.10;99.90;;;;;;1918939;73;20130;-74
2021/07/26 01:37:35;;;;;;;;;;;20.10;99.90;;;;;;1913473;73;20201;-74
2021/07/26 01:40:03;;;;;;;;;;;20.10;99.90;;;;;;1924086;73;20433;-74
2021/07/26 01:42:29;;;;;;;;;;;20.00;99.90;;;;;;1946324;73;20170;-74
2021/07/26 01:44:58;;;;;;;;;;;20.00;99.90;;;;;;1951095;73;20178;-74
2021/07/26 01:47:26;;;;;;;;;;;20.00;99.90;;;;;;1923403;73;20463;-74
2021/07/26 01:49:55;;;;;;;;;;;19.90;99.90;;;;;;1920242;73;20114;-74
2021/07/26 01:52:22;;;;;;;;;;;19.80;99.90;;;;;;1920827;73;20145;-75
2021/07/26 01:54:49;;;;;;;;;;;19.70;99.90;;;;;;1920480;75;20125;-75
2021/07/26 01:57:16;;;;;;;;;;;19.70;99.90;;;;;;1951829;73;20153;-75
2021/07/26 01:59:43;;;;;;;;;;;19.80;99.90;;;;;;1932146;73;20429;-74
2021/07/26 02:02:09;;;;;;;;;;;19.80;99.90;;;;;;1924868;73;20194;-73
2021/07/26 02:04:36;;;;;;;;;;;19.90;99.90;;;;;;1928437;73;20364;-74
2021/07/26 02:07:06;;;;;;;;;;;19.80;99.90;;;;;;1917670;73;20130;-74
2021/07/26 02:09:31;;;;;;;;;;;19.80;99.90;;;;;;1920071;75;20104;-73
2021/07/26 02:11:58;;;;;;;;;;;19.80;99.90;;;;;;1919460;73;20127;-73
2021/07/26 02:14:25;;;;;;;;;;;19.80;99.90;;;;;;1940310;73;20178;-73
2021/07/26 02:16:52;;;;;;;;;;;19.80;99.90;;;;;;1923622;73;20257;-73
2021/07/26 02:19:20;;;;;;;;;;;19.80;99.90;;;;;;1917674;73;20510;-73
2021/07/26 02:21:46;;;;;;;;;;;19.70;99.90;;;;;;1915552;73;20489;-73
2021/07/26 02:24:13;;;;;;;;;;;19.70;99.90;;;;;;1936143;73;20178;-74
2021/07/26 02:26:40;;;;;;;;;;;19.80;99.90;;;;;;1922656;73;20176;-74
2021/07/26 02:29:07;;;;;;;;;;;19.90;99.90;;;;;;1929258;73;20135;-74
2021/07/26 02:31:34;;;;;;;;;;;19.80;99.90;;;;;;1937282;73;20163;-74
2021/07/26 02:34:00;;;;;;;;;;;19.80;99.90;;;;;;1916187;73;20199;-74
2021/07/26 02:36:27;;;;;;;;;;;19.80;99.90;;;;;;1942188;73;20195;-74
2021/07/26 02:38:54;;;;;;;;;;;19.80;99.90;;;;;;1919038;73;20165;-74
2021/07/26 02:41:21;;;;;;;;;;;19.70;99.90;;;;;;1912937;73;20181;-74
2021/07/26 02:43:48;;;;;;;;;;;19.70;99.90;;;;;;1943641;73;20144;-73
2021/07/26 02:46:14;;;;;;;;;;;19.70;99.90;;;;;;1903396;73;20166;-74
2021/07/26 02:48:41;;;;;;;;;;;19.60;99.90;;;;;;1919062;73;20183;-74
2021/07/26 02:51:08;;;;;;;;;;;19.60;99.90;;;;;;1925876;73;20179;-74
2021/07/26 02:53:35;;;;;;;;;;;19.70;99.90;;;;;;1944014;73;20123;-74
2021/07/26 02:56:03;;;;;;;;;;;19.60;99.90;;;;;;1943760;73;20176;-73
2021/07/26 02:58:30;;;;;;;;;;;19.60;99.90;;;;;;1922989;73;20289;-73
2021/07/26 03:00:57;;;;;;;;;;;19.60;99.90;;;;;;1916038;73;20186;-74
2021/07/26 03:03:24;;;;;;;;;;;19.60;99.90;;;;;;1917238;73;20114;-73
2021/07/26 03:05:51;;;;;;;;;;;19.60;99.90;;;;;;1921152;73;20221;-73
2021/07/26 03:08:17;;;;;;;;;;;19.60;99.90;;;;;;1920900;73;20249;-73
2021/07/26 03:10:44;;;;;;;;;;;19.50;99.90;;;;;;1924138;73;20171;-74
2021/07/26 03:13:11;;;;;;;;;;;19.50;99.90;;;;;;1937071;73;20166;-74
2021/07/26 03:15:38;;;;;;;;;;;19.50;99.90;;;;;;1931455;73;20259;-75
2021/07/26 03:18:05;;;;;;;;;;;19.50;99.90;;;;;;1951019;73;20175;-73
2021/07/26 03:20:31;;;;;;;;;;;19.50;99.90;;;;;;1921756;73;20184;-75
2021/07/26 03:23:02;;;;;;;;;;;19.50;99.90;;;;;;1918203;73;20255;-75
2021/07/26 03:25:31;;;;;;;;;;;19.40;99.90;;;;;;1919499;73;20379;-74
2021/07/26 03:27:58;;;;;;;;;;;19.40;99.90;;;;;;1940217;73;20201;-75
2021/07/26 03:30:25;;;;;;;;;;;19.40;99.90;;;;;;1932400;73;20204;-74
2021/07/26 03:32:52;;;;;;;;;;;19.40;99.90;;;;;;1912324;75;20193;-73
2021/07/26 03:35:20;;;;;;;;;;;19.40;99.90;;;;;;1918210;73;20181;-73
2021/07/26 03:37:47;;;;;;;;;;;19.30;99.90;;;;;;1918315;73;20208;-74
2021/07/26 03:40:14;;;;;;;;;;;19.30;99.90;;;;;;1932981;73;20174;-74
2021/07/26 03:42:42;;;;;;;;;;;19.30;99.90;;;;;;1920080;73;20476;-74
2021/07/26 03:45:10;;;;;;;;;;;19.40;99.90;;;;;;1919628;75;20480;-74
2021/07/26 03:47:38;;;;;;;;;;;19.40;99.90;;;;;;1926694;73;20432;-75
2021/07/26 03:50:06;;;;;;;;;;;19.40;99.90;;;;;;1945833;73;20134;-74
2021/07/26 03:52:34;;;;;;;;;;;19.30;99.90;;;;;;1922590;73;20125;-74
2021/07/26 03:55:01;;;;;;;;;;;19.30;99.90;;;;;;1918175;75;20191;-74
2021/07/26 03:57:28;;;;;;;;;;;19.30;99.90;;;;;;1919998;73;20157;-74
2021/07/26 03:59:54;;;;;;;;;;;19.40;99.90;;;;;;1919813;73;20107;-74
2021/07/26 04:02:21;;;;;;;;;;;19.40;99.90;;;;;;1919399;73;20118;-74
2021/07/26 04:04:48;;;;;;;;;;;19.30;99.90;;;;;;1919876;73;20099;-74
2021/07/26 04:07:18;;;;;;;;;;;19.30;99.90;;;;;;1919965;73;20185;-74
2021/07/26 04:09:47;;;;;;;;;;;19.30;99.90;;;;;;1912326;75;20219;-74
2021/07/26 04:12:21;;;;;;;;;;;19.30;99.90;;;;;;1924402;73;20449;-74
2021/07/26 04:14:43;;;;;;;;;;;19.30;99.90;;;;;;1918145;75;20180;-74
2021/07/26 04:17:10;;;;;;;;;;;19.40;99.90;;;;;;1941640;73;20170;-74
2021/07/26 04:19:37;;;;;;;;;;;19.40;99.90;;;;;;1946452;73;20338;-75
2021/07/26 04:22:04;;;;;;;;;;;19.40;99.90;;;;;;1916944;73;20161;-75
2021/07/26 04:24:30;;;;;;;;;;;19.40;99.90;;;;;;1919542;73;20169;-75
2021/07/26 04:26:57;;;;;;;;;;;19.50;99.90;;;;;;1938619;73;20170;-73
2021/07/26 04:29:24;;;;;;;;;;;19.50;99.90;;;;;;1923188;73;20238;-75
2021/07/26 04:31:51;;;;;;;;;;;19.60;99.90;;;;;;1924532;73;20149;-74
2021/07/26 04:34:18;;;;;;;;;;;19.50;99.90;;;;;;1930821;73;20198;-74
2021/07/26 04:36:44;;;;;;;;;;;19.50;99.90;;;;;;1951900;73;20116;-74
2021/07/26 04:39:11;;;;;;;;;;;19.50;99.90;;;;;;1919437;73;20156;-74
2021/07/26 04:41:38;;;;;;;;;;;19.50;99.90;;;;;;1934627;73;20159;-74
2021/07/26 04:44:05;;;;;;;;;;;19.60;99.90;;;;;;1920398;73;20110;-74
2021/07/26 04:46:32;;;;;;;;;;;19.70;99.90;;;;;;1952854;73;20416;-74
2021/07/26 04:48:59;;;;;;;;;;;19.70;99.90;;;;;;1927289;73;20133;-74
2021/07/26 04:51:26;;;;;;;;;;;19.70;99.90;;;;;;1923096;73;20246;-74
2021/07/26 04:53:52;;;;;;;;;;;19.80;99.90;;;;;;1920493;72;20482;-74
2021/07/26 04:56:19;;;;;;;;;;;19.70;99.90;;;;;;1920168;73;20244;-73
2021/07/26 04:58:46;;;;;;;;;;;19.70;99.90;;;;;;1923656;73;20518;-74
2021/07/26 05:01:13;;;;;;;;;;;19.80;99.90;;;;;;1919232;73;20174;-74
2021/07/26 05:03:40;;;;;;;;;;;19.80;99.90;;;;;;1934526;73;20243;-74
2021/07/26 05:06:07;;;;;;;;;;;19.90;99.90;;;;;;1937225;73;20303;-74
2021/07/26 05:08:33;;;;;;;;;;;19.90;99.90;;;;;;1917627;73;20419;-74
2021/07/26 05:11:00;;;;;;;;;;;20.00;99.90;;;;;;1924690;72;20171;-74
2021/07/26 05:13:27;;;;;;;;;;;20.00;99.90;;;;;;1911747;73;20488;-73
2021/07/26 05:15:54;;;;;;;;;;;20.10;99.90;;;;;;1920230;73;20150;-73
2021/07/26 05:18:20;;;;;;;;;;;20.10;99.90;;;;;;1929715;73;20167;-73
2021/07/26 05:20:47;;;;;;;;;;;20.10;99.90;;;;;;1938962;73;20185;-74
2021/07/26 05:23:16;;;;;;;;;;;20.20;99.90;;;;;;1934357;73;20177;-74
2021/07/26 05:25:44;;;;;;;;;;;20.20;99.90;;;;;;1910433;75;20220;-73
2021/07/26 05:28:10;;;;;;;;;;;20.30;99.90;;;;;;1911991;73;20261;-74
2021/07/26 05:30:38;;;;;;;;;;;20.40;99.90;;;;;;1882531;75;20168;-74
2021/07/26 05:33:05;;;;;;;;;;;20.40;99.90;;;;;;1932047;73;20630;-74
2021/07/26 05:35:32;;;;;;;;;;;20.50;99.90;;;;;;1921836;73;20224;-73
2021/07/26 05:38:00;;;;;;;;;;;20.50;99.90;;;;;;1919800;75;20165;-74
2021/07/26 05:40:27;;;;;;;;;;;20.60;99.90;;;;;;1927568;73;20215;-74
2021/07/26 05:42:54;;;;;;;;;;;20.60;99.90;;;;;;1915847;74;20203;-74
2021/07/26 05:45:21;;;;;;;;;;;20.60;99.90;;;;;;1931282;73;20476;-74
2021/07/26 05:47:50;;;;;;;;;;;20.60;99.90;;;;;;1952575;73;20292;-73
2021/07/26 05:50:16;;;;;;;;;;;20.70;99.90;;;;;;1915421;73;20192;-74
2021/07/26 05:52:43;;;;;;;;;;;20.70;99.90;;;;;;1910935;73;20228;-74
2021/07/26 05:55:10;;;;;;;;;;;20.80;99.90;;;;;;1907153;75;20365;-74
2021/07/26 05:57:43;;;;;;;;;;;20.80;99.90;;;;;;1917659;73;20222;-74
2021/07/26 06:00:10;;;;;;;;;;;20.80;99.90;;;;;;1913435;75;20491;-76
2021/07/26 06:02:34;;;;;;;;;;;20.90;99.90;;;;;;1914711;73;20220;-69
2021/07/26 06:05:00;;;;;;;;;;;20.90;99.90;;;;;;1920142;75;20532;-71
2021/07/26 06:07:27;;;;;;;;;;;20.90;99.90;;;;;;1917512;73;20209;-70
2021/07/26 06:09:54;;;;;;;;;;;21.00;99.90;;;;;;1923791;73;20318;-69
2021/07/26 06:12:23;;;;;;;;;;;21.00;99.90;;;;;;1918300;75;20164;-70
2021/07/26 06:14:50;;;;;;;;;;;21.00;99.90;;;;;;1914157;75;20168;-72
2021/07/26 06:17:17;;;;;;;;;;;21.00;99.90;;;;;;1917267;75;20226;-70
2021/07/26 06:19:44;;;;;;;;;;;21.10;99.90;;;;;;1930766;73;20950;-71
2021/07/26 06:22:11;;;;;;;;;;;21.10;99.90;;;;;;1923396;73;20214;-70
2021/07/26 06:24:37;;;;;;;;;;;21.10;99.90;;;;;;1915185;75;20138;-70
2021/07/26 06:27:04;;;;;;;;;;;21.20;99.90;;;;;;1921845;73;20244;-70
2021/07/26 06:29:31;;;;;;;;;;;21.20;99.90;;;;;;1914198;75;20178;-69
2021/07/26 06:31:58;;;;;;;;;;;21.20;99.90;;;;;;1928705;73;20452;-70
2021/07/26 06:34:25;;;;;;;;;;;21.30;99.90;;;;;;1949841;73;20184;-70
2021/07/26 06:36:52;;;;;;;;;;;21.30;99.90;;;;;;1918017;75;20181;-70
2021/07/26 06:39:19;;;;;;;;;;;21.30;99.90;;;;;;1913646;75;20399;-71
2021/07/26 06:41:45;;;;;;;;;;;21.40;99.90;;;;;;1912819;74;20352;-70
2021/07/26 06:44:12;;;;;;;;;;;21.40;99.90;;;;;;1916356;75;20484;-69
2021/07/26 06:46:39;;;;;;;;;;;21.40;99.90;;;;;;1911796;75;20168;-69
2021/07/26 06:49:06;;;;;;;;;;;21.40;99.90;;;;;;1930983;73;20191;-70
2021/07/26 06:51:33;;;;;;;;;;;21.40;99.90;;;;;;1923399;73;20216;-70
2021/07/26 06:54:00;;;;;;;;;;;21.40;99.90;;;;;;1918528;73;20247;-70
2021/07/26 06:56:26;;;;;;;;;;;21.40;99.90;;;;;;1915369;75;20193;-70
2021/07/26 06:58:53;;;;;;;;;;;21.40;99.90;;;;;;1940462;73;20131;-70
2021/07/26 07:01:20;;;;;;;;;;;21.50;99.90;;;;;;1940855;73;20229;-71
2021/07/26 07:03:47;;;;;;;;;;;21.50;99.90;;;;;;1918768;73;20180;-71
2021/07/26 07:06:15;;;;;;;;;;;21.50;99.90;;;;;;1916523;75;20184;-72
2021/07/26 07:08:42;;;;;;;;;;;21.50;99.90;;;;;;1921135;75;20277;-70
2021/07/26 07:11:10;;;;;;;;;;;21.50;99.90;;;;;;1920478;75;20278;-70
2021/07/26 07:13:37;;;;;;;;;;;21.50;99.90;;;;;;1915267;75;20177;-71
2021/07/26 07:16:06;;;;;;;;;;;21.50;99.90;;;;;;1915537;75;20224;-70
2021/07/26 07:18:32;;;;;;;;;;;21.50;99.90;;;;;;1916512;75;20566;-70
2021/07/26 07:20:59;;;;;;;;;;;21.50;99.90;;;;;;1916082;75;20160;-69
2021/07/26 07:23:26;;;;;;;;;;;21.50;99.90;;;;;;1922636;73;20428;-70
2021/07/26 07:25:54;;;;;;;;;;;21.50;99.90;;;;;;1914526;75;20213;-71
2021/07/26 07:28:21;;;;;;;;;;;21.60;99.90;;;;;;1912681;73;20200;-70
2021/07/26 07:30:47;;;;;;;;;;;21.60;99.90;;;;;;1921007;73;20212;-71
2021/07/26 07:33:14;;;;;;;;;;;21.70;99.90;;;;;;1928087;73;20234;-70
2021/07/26 07:35:41;;;;;;;;;;;21.60;99.90;;;;;;1954515;73;20190;-71
2021/07/26 07:38:08;;;;;;;;;;;21.60;99.90;;;;;;1951233;73;20283;-70
2021/07/26 07:40:37;;;;;;;;;;;21.60;99.90;;;;;;1936895;73;20171;-70
2021/07/26 07:43:05;;;;;;;;;;;21.70;99.90;;;;;;1941363;73;20161;-70
2021/07/26 07:45:32;;;;;;;;;;;21.70;99.90;;;;;;1926430;73;20514;-70
2021/07/26 07:47:59;;;;;;;;;;;21.80;99.90;;;;;;1913357;75;20240;-71
2021/07/26 07:50:26;;;;;;;;;;;21.80;99.90;;;;;;1936131;73;20159;-68
2021/07/26 07:52:53;;;;;;;;;;;21.80;99.90;;;;;;1938903;73;20160;-69
2021/07/26 07:55:21;;;;;;;;;;;21.90;99.90;;;;;;1920204;73;20224;-68
2021/07/26 07:57:52;;;;;;;;;;;21.90;99.90;;;;;;1929042;73;20163;-69
2021/07/26 08:00:20;;;;;;;;;;;22.00;99.90;;;;;;1921238;73;20502;-69
2021/07/26 08:02:47;;;;;;;;;;;22.00;99.90;;;;;;1929827;73;20159;-70
2021/07/26 08:05:15;;;;;;;;;;;22.00;99.90;;;;;;1922438;72;20121;-70
2021/07/26 08:07:42;;;;;;;;;;;22.10;99.90;;;;;;1918591;74;20192;-68
2021/07/26 08:10:09;;;;;;;;;;;22.10;99.90;;;;;;1918918;75;20159;-70
2021/07/26 08:12:36;;;;;;;;;;;22.10;99.90;;;;;;1920672;75;20250;-69
2021/07/26 08:15:03;;;;;;;;;;;22.10;99.90;;;;;;1919805;75;20173;-70
2021/07/26 08:17:30;;;;;;;;;;;22.10;99.90;;;;;;1920616;75;20425;-70
2021/07/26 08:19:57;;;;;;;;;;;22.10;99.90;;;;;;1920207;73;20224;-71
2021/07/26 08:22:23;;;;;;;;;;;22.20;99.90;;;;;;1935705;73;20432;-70
2021/07/26 08:24:50;;;;;;;;;;;22.20;99.90;;;;;;1894965;75;20188;-69
2021/07/26 08:27:17;;;;;;;;;;;22.30;99.90;;;;;;1916551;75;20222;-70
2021/07/26 08:29:44;;;;;;;;;;;22.30;99.90;;;;;;1921099;75;20118;-70
2021/07/26 08:32:11;;;;;;;;;;;22.30;99.90;;;;;;1917602;75;20195;-69
2021/07/26 08:34:37;;;;;;;;;;;22.20;99.90;;;;;;1918623;73;20265;-70
2021/07/26 08:37:04;;;;;;;;;;;22.30;99.90;;;;;;1916668;73;20134;-70
2021/07/26 08:39:33;;;;;;;;;;;22.30;99.90;;;;;;1954301;73;20163;-70
2021/07/26 08:41:59;;;;;;;;;;;22.20;99.90;;;;;;1942390;73;20420;-69
2021/07/26 08:44:27;;;;;;;;;;;22.30;99.90;;;;;;1913916;75;20244;-69
2021/07/26 08:46:57;;;;;;;;;;;22.30;99.90;;;;;;1916123;75;20173;-70
2021/07/26 08:49:26;;;;;;;;;;;22.30;99.90;;;;;;1915436;75;20119;-70
2021/07/26 08:51:53;;;;;;;;;;;22.40;99.90;;;;;;1924968;73;20162;-70
2021/07/26 08:54:19;;;;;;;;;;;22.40;99.90;;;;;;1910556;75;20266;-70
2021/07/26 08:56:49;;;;;;;;;;;22.50;99.90;;;;;;1913993;75;20161;-70
2021/07/26 08:59:15;;;;;;;;;;;22.50;99.90;;;;;;1914308;74;20126;-71
2021/07/26 09:01:43;;;;;;;;;;;22.60;99.90;;;;;;1919854;73;20164;-69
2021/07/26 09:04:10;;;;;;;;;;;22.60;99.90;;;;;;1913608;75;20318;-70
2021/07/26 09:06:37;;;;;;;;;;;22.70;99.90;;;;;;1919233;75;20203;-70
2021/07/26 09:09:04;;;;;;;;;;;22.80;99.90;;;;;;1920280;75;20173;-70
2021/07/26 09:11:44;;;;;;;;;;;23.00;99.90;;;;;;1921382;73;20201;-71
2021/07/26 09:14:11;;;;;;;;;;;23.00;99.90;;;;;;1916882;75;20177;-72
2021/07/26 09:16:38;;;;;;;;;;;23.10;99.90;;;;;;1921891;73;20256;-69
2021/07/26 09:19:10;;;;;;;;;;;23.10;99.90;;;;;;1944692;73;20186;-71
2021/07/26 09:21:53;;;;;;;;;;;23.10;99.90;;;;;;1918611;74;20497;-71
2021/07/26 09:24:27;;;;;;;;;;;23.10;99.90;;;;;;1944023;73;20152;-71
2021/07/26 09:26:56;;;;;;;;;;;23.20;99.90;;;;;;1936479;73;20173;-71
2021/07/26 09:29:26;;;;;;;;;;;23.40;99.90;;;;;;1927837;73;20178;-71
2021/07/26 09:31:57;;;;;;;;;;;23.60;99.90;;;;;;1924078;73;20118;-71
2021/07/26 09:34:24;;;;;;;;;;;23.70;99.90;;;;;;1925371;73;20146;-72
2021/07/26 09:36:51;;;;;;;;;;;23.70;99.90;;;;;;1921484;75;20106;-71
2021/07/26 09:39:27;;;;;;;;;;;23.80;99.90;;;;;;1920604;75;20129;-71
2021/07/26 09:41:56;;;;;;;;;;;23.90;99.90;;;;;;1920405;75;20114;-72
2021/07/26 09:44:24;;;;;;;;;;;24.10;99.90;;;;;;1916865;75;20146;-72
2021/07/26 09:46:53;;;;;;;;;;;24.10;99.90;;;;;;1918122;75;20129;-71
2021/07/26 09:49:21;;;;;;;;;;;24.20;99.90;;;;;;1929384;73;20124;-70
2021/07/26 09:52:04;;;;;;;;;;;24.30;99.90;;;;;;1917974;75;20168;-71
2021/07/26 09:54:42;;;;;;;;;;;24.40;99.90;;;;;;1927784;73;20197;-70
2021/07/26 09:57:23;;;;;;;;;;;24.40;99.90;;;;;;1918154;74;20226;-73
2021/07/26 09:59:49;;;;;;;;;;;24.50;99.90;;;;;;1920153;75;20157;-72
2021/07/26 10:02:18;;;;;;;;;;;24.60;99.90;;;;;;1928368;73;20149;-73
2021/07/26 10:04:45;;;;;;;;;;;24.60;99.90;;;;;;1912908;73;20228;-73
2021/07/26 10:07:13;;;;;;;;;;;24.80;99.90;;;;;;1941950;73;20163;-73
2021/07/26 10:09:44;;;;;;;;;;;24.80;99.90;;;;;;1934816;73;20256;-70
2021/07/26 10:12:11;;;;;;;;;;;24.80;99.90;;;;;;1891801;75;20523;-71
2021/07/26 10:14:39;;;;;;;;;;;24.80;99.90;;;;;;1931892;73;20616;-70
2021/07/26 10:17:07;;;;;;;;;;;24.80;99.90;;;;;;1924281;73;20127;-71
2021/07/26 10:19:34;;;;;;;;;;;24.80;99.90;;;;;;1933190;73;20149;-70
2021/07/26 10:22:02;;;;;;;;;;;24.70;99.90;;;;;;1919171;75;20221;-68
2021/07/26 10:24:47;;;;;;;;;;;24.70;99.90;;;;;;1938436;73;20327;-71
2021/07/26 10:27:15;;;;;;;;;;;24.70;99.90;;;;;;1912917;75;20161;-72
2021/07/26 10:29:53;;;;;;;;;;;24.70;99.90;;;;;;1918071;73;20449;-72
2021/07/26 10:32:21;;;;;;;;;;;24.60;99.90;;;;;;1912785;73;20509;-72
2021/07/26 10:34:48;;;;;;;;;;;24.70;99.90;;;;;;1940496;73;20212;-72
2021/07/26 10:37:16;;;;;;;;;;;24.80;99.90;;;;;;1913267;75;20607;-73
2021/07/26 10:39:44;;;;;;;;;;;24.80;99.90;;;;;;1903695;71;20169;-72
2021/07/26 10:42:11;;;;;;;;;;;24.80;99.90;;;;;;1848334;76;20177;-72
2021/07/26 10:44:39;;;;;;;;;;;24.80;99.90;;;;;;1869738;76;20203;-75
2021/07/26 10:47:08;;;;;;;;;;;24.90;99.90;;;;;;1851605;77;20400;-74
2021/07/26 10:49:45;;;;;;;;;;;24.80;99.90;;;;;;1850834;77;20217;-74
2021/07/26 10:52:23;;;;;;;;;;;24.70;99.90;;;;;;1849004;76;20412;-74
2021/07/26 10:54:50;;;;;;;;;;;24.60;99.90;;;;;;1838111;76;20524;-74
2021/07/26 10:57:18;;;;;;;;;;;24.60;99.90;;;;;;1842985;78;20531;-74
2021/07/26 11:00:04;;;;;;;;;;;24.60;99.90;;;;;;1820307;78;20297;-72
2021/07/26 11:02:37;;;;;;;;;;;24.50;99.90;;;;;;1844046;78;20162;-72
2021/07/26 11:08:18;;;;;;;;;;;24.50;99.90;;;;;;1844561;77;20182;-71
2021/07/26 11:10:57;;;;;;;;;;;24.50;99.90;;;;;;1854592;76;20190;-71
2021/07/26 11:13:24;;;;;;;;;;;24.50;99.90;;;;;;1841849;77;20175;-71
2021/07/26 11:15:55;;;;;;;;;;;24.60;99.90;;;;;;1820321;77;20172;-71
2021/07/26 11:18:29;;;;;;;;;;;24.60;99.90;;;;;;1829033;78;20190;-72
2021/07/26 11:20:57;;;;;;;;;;;24.60;99.90;;;;;;1827476;77;20232;-71
2021/07/26 11:23:42;;;;;;;;;;;24.60;99.90;;;;;;1824431;77;20180;-70
2021/07/26 11:26:19;;;;;;;;;;;24.70;99.90;;;;;;1825987;77;20184;-71
2021/07/26 11:28:47;;;;;;;;;;;24.90;99.90;;;;;;1829353;78;20183;-72
2021/07/26 11:31:30;;;;;;;;;;;25.10;99.90;;;;;;1828836;77;20183;-72
2021/07/26 11:34:05;;;;;;;;;;;25.10;99.90;;;;;;1838015;77;20200;-71
2021/07/26 11:36:32;;;;;;;;;;;25.20;99.90;;;;;;1826941;77;20532;-71
2021/07/26 11:39:00;;;;;;;;;;;25.50;99.90;;;;;;1823525;79;20434;-72
2021/07/26 11:41:27;;;;;;;;;;;25.50;99.90;;;;;;1823723;77;21095;-72
2021/07/26 11:43:54;;;;;;;;;;;25.50;99.90;;;;;;1831682;77;20461;-72
2021/07/26 11:46:22;;;;;;;;;;;25.40;99.90;;;;;;1831490;77;20197;-72
2021/07/26 11:48:53;;;;;;;;;;;25.20;99.90;;;;;;1838086;77;20508;-72
2021/07/26 11:51:26;;;;;;;;;;;25.10;99.90;;;;;;1823400;77;20187;-71
2021/07/26 11:53:57;;;;;;;;;;;25.00;99.90;;;;;;1836943;77;20165;-71
2021/07/26 11:56:24;;;;;;;;;;;25.20;99.90;;;;;;1835195;77;20194;-72
2021/07/26 11:58:51;;;;;;;;;;;25.40;99.90;;;;;;1831148;77;20142;-72
2021/07/26 12:01:18;;;;;;;;;;;25.50;99.90;;;;;;1833598;77;20272;-72
2021/07/26 12:03:45;;;;;;;;;;;25.50;99.90;;;;;;1834330;77;20218;-71
2021/07/26 12:06:12;;;;;;;;;;;25.50;99.90;;;;;;1824497;77;20183;-72
2021/07/26 12:08:39;;;;;;;;;;;25.70;99.90;;;;;;1850549;77;20181;-70
2021/07/26 12:11:23;;;;;;;;;;;25.70;99.90;;;;;;1844764;76;20153;-70
2021/07/26 12:13:46;;;;;;;;;;;25.50;99.90;;;;;;1826735;77;20195;-70
2021/07/26 12:16:18;;;;;;;;;;;25.50;99.90;;;;;;1811943;77;20479;-70
2021/07/26 12:18:42;;;;;;;;;;;25.80;99.90;;;;;;1823171;77;20145;-69
2021/07/26 12:21:11;;;;;;;;;;;25.70;99.90;;;;;;1824025;77;20505;-70
2021/07/26 12:23:37;;;;;;;;;;;25.70;99.90;;;;;;1837646;76;20230;-70
2021/07/26 12:28:02;;;;;;;;;;;26.00;99.90;;;;;;1933983;73;20583;-67
2021/07/26 12:30:36;;;;;;;;;;;27.00;99.90;;;;;;1877889;74;20171;-68
2021/07/26 12:33:03;;;;;;;;;;;27.00;99.90;;;;;;1874770;76;20241;-69
2021/07/26 12:35:30;;;;;;;;;;;26.60;99.90;;;;;;1864078;76;20125;-70
2021/07/26 12:38:13;;;;;;;;;;;26.30;99.90;;;;;;1873212;76;20521;-70
2021/07/26 12:40:40;;;;;;;;;;;26.20;99.90;;;;;;1880490;76;20107;-69
2021/07/26 12:43:11;;;;;;;;;;;26.40;99.90;;;;;;1884782;76;20181;-69
2021/07/26 12:45:39;;;;;;;;;;;26.40;99.90;;;;;;1867054;76;20138;-69
2021/07/26 12:48:13;;;;;;;;;;;26.40;99.90;;;;;;1873001;76;20221;-70
2021/07/26 12:50:42;;;;;;;;;;;26.70;99.90;;;;;;1884622;75;20122;-69
2021/07/26 12:53:09;;;;;;;;;;;27.00;99.90;;;;;;1882922;75;20848;-68
2021/07/26 12:55:36;;;;;;;;;;;27.20;99.90;;;;;;1866172;76;20370;-69
2021/07/26 12:58:03;;;;;;;;;;;27.00;99.90;;;;;;1876398;76;20246;-69
2021/07/26 13:00:30;;;;;;;;;;;27.00;99.90;;;;;;1863157;76;20475;-70
2021/07/26 13:02:57;;;;;;;;;;;27.20;99.90;;;;;;1872905;76;20130;-68
2021/07/26 13:05:24;;;;;;;;;;;27.30;99.90;;;;;;1883914;76;20173;-69
2021/07/26 13:07:51;;;;;;;;;;;27.40;99.90;;;;;;1874420;76;20109;-68
2021/07/26 13:10:17;;;;;;;;;;;27.50;99.90;;;;;;1874904;75;20323;-68
2021/07/26 13:12:44;;;;;;;;;;;27.50;99.90;;;;;;1881081;76;20179;-68
2021/07/26 13:15:11;;;;;;;;;;;27.40;99.90;;;;;;1881700;75;20494;-68
2021/07/26 13:17:38;;;;;;;;;;;26.90;99.90;;;;;;1882221;76;20185;-67
2021/07/26 13:20:10;;;;;;;;;;;26.60;99.90;;;;;;1862359;76;20158;-68
2021/07/26 13:22:35;;;;;;;;;;;26.30;99.90;;;;;;1870268;76;20574;-69
2021/07/26 13:25:01;;;;;;;;;;;26.30;99.90;;;;;;1873659;76;20216;-68
2021/07/26 13:27:28;;;;;;;;;;;26.20;99.90;;;;;;1872068;75;20182;-69
2021/07/26 13:29:55;;;;;;;;;;;26.10;99.90;;;;;;1885175;76;20873;-68
2021/07/26 13:32:22;;;;;;;;;;;26.10;99.90;;;;;;1878958;76;20201;-69
2021/07/26 13:34:49;;;;;;;;;;;26.10;99.90;;;;;;1889308;75;20432;-69
2021/07/26 13:37:15;;;;;;;;;;;26.10;99.90;;;;;;1890164;76;20169;-69
2021/07/26 13:39:42;;;;;;;;;;;26.10;99.90;;;;;;1881224;76;21021;-68
2021/07/26 13:42:09;;;;;;;;;;;26.20;99.90;;;;;;1869788;76;20174;-67
2021/07/26 13:44:36;;;;;;;;;;;26.30;99.90;;;;;;1880886;76;20181;-68
2021/07/26 13:47:03;;;;;;;;;;;26.20;99.90;;;;;;1875216;76;20525;-68
2021/07/26 13:49:30;;;;;;;;;;;26.20;99.90;;;;;;1887367;76;20209;-68
2021/07/26 13:51:56;;;;;;;;;;;26.20;99.90;;;;;;1872807;75;20178;-69
2021/07/26 13:54:23;;;;;;;;;;;26.10;99.90;;;;;;1890842;76;20571;-68
2021/07/26 13:56:50;;;;;;;;;;;26.00;99.90;;;;;;1869428;76;20214;-68
2021/07/26 13:59:17;;;;;;;;;;;25.90;99.90;;;;;;1877516;76;20474;-68
2021/07/26 14:01:44;;;;;;;;;;;26.20;99.90;;;;;;1890181;76;20192;-68
2021/07/26 14:04:11;;;;;;;;;;;26.60;99.90;;;;;;1886938;76;20177;-68
2021/07/26 14:06:38;;;;;;;;;;;26.50;99.90;;;;;;1884343;76;20253;-66
2021/07/26 14:09:04;;;;;;;;;;;26.80;99.90;;;;;;1877525;76;20473;-67
2021/07/26 14:11:31;;;;;;;;;;;27.20;99.90;;;;;;1889418;75;20117;-68
2021/07/26 14:13:58;;;;;;;;;;;27.80;99.90;;;;;;1887278;76;20181;-68
2021/07/26 14:16:25;;;;;;;;;;;28.00;99.90;;;;;;1888160;76;20216;-68
2021/07/26 14:18:51;;;;;;;;;;;28.20;99.90;;;;;;1882030;76;20154;-69
2021/07/26 14:21:18;;;;;;;;;;;27.50;99.90;;;;;;1889160;76;20177;-68
2021/07/26 14:23:45;;;;;;;;;;;27.50;99.90;;;;;;1889274;76;20209;-68
2021/07/26 14:26:12;;;;;;;;;;;27.50;99.90;;;;;;1889076;76;20244;-67